Time;durP1;ratioP1;P1;durP2;ratioP2;P2;SDS_P1;SDS_P2;PMS_P1;PMS_P2;Temp;Humidity;BMP_temperature;BMP_pressure;BME280_temperature;BME280_humidity;BME280_pressure;Samples;Min_cycle;Max_cycle;Signal;HPM_P1;HPM_P2
2022/04/20 00:00:16;;;;;;;49.73;4.47;;;;;;;20.16;48.90;99454.31;7308746;19;154468;-40
2022/04/20 00:02:41;;;;;;;16.10;1.77;;;;;;;20.18;49.71;99457.63;7317033;19;129101;-39
2022/04/20 00:05:07;;;;;;;23.05;2.28;;;;;;;20.25;49.35;99457.91;7312449;19;158763;-38
2022/04/20 00:07:33;;;;;;;23.92;2.03;;;;;;;20.28;50.60;99462.88;7315799;19;130392;-39
2022/04/20 00:09:59;;;;;;;31.20;2.83;;;;;;;20.30;50.55;99463.53;7313719;19;129341;-40
2022/04/20 00:12:25;;;;;;;26.27;2.47;;;;;;;20.33;50.67;99471.09;7315855;19;128963;-40
2022/04/20 00:14:50;;;;;;;41.20;3.70;;;;;;;20.37;49.72;99472.50;7315728;19;129966;-42
2022/04/20 00:17:18;;;;;;;24.77;2.33;;;;;;;20.36;50.59;99460.41;7313269;19;129600;-40
2022/04/20 00:19:44;;;;;;;35.85;3.17;;;;;;;20.35;50.97;99458.75;7312963;19;130128;-41
2022/04/20 00:22:09;;;;;;;8.75;1.17;;;;;;;20.29;49.96;99448.84;7315714;19;129060;-40
2022/04/20 00:24:34;;;;;;;19.90;1.95;;;;;;;20.35;50.83;99475.25;7312692;19;158458;-39
2022/04/20 00:26:59;;;;;;;66.93;6.07;;;;;;;20.24;49.01;99477.16;7305826;19;130330;-41
2022/04/20 00:29:25;;;;;;;27.65;2.42;;;;;;;19.96;48.03;99478.69;7307022;19;130502;-38
2022/04/20 00:31:50;;;;;;;20.52;2.42;;;;;;;19.90;48.01;99475.78;7313473;19;154481;-41
2022/04/20 00:34:15;;;;;;;35.17;3.03;;;;;;;19.92;47.57;99466.00;7314232;19;158293;-38
2022/04/20 00:36:40;;;;;;;26.97;2.43;;;;;;;19.90;47.13;99465.34;7313116;19;158415;-42
2022/04/20 00:39:06;;;;;;;40.13;3.45;;;;;;;19.97;47.29;99484.72;7314363;19;130535;-36
2022/04/20 00:41:31;;;;;;;27.20;2.47;;;;;;;19.99;47.13;99483.63;7312828;19;129772;-41
2022/04/20 00:43:58;;;;;;;21.75;1.85;;;;;;;19.97;47.54;99484.72;7313162;19;129735;-43
2022/04/20 00:46:24;;;;;;;38.70;3.15;;;;;;;20.00;47.45;99479.25;7314624;19;130409;-39
2022/04/20 00:48:51;;;;;;;27.90;2.50;;;;;;;20.01;47.33;99476.50;7314484;19;129047;-38
2022/04/20 00:51:16;;;;;;;30.83;2.80;;;;;;;20.01;47.25;99475.69;7312675;19;129506;-41
2022/04/20 00:53:42;;;;;;;33.13;3.05;;;;;;;20.17;47.14;99481.25;7312367;19;151768;-39
2022/04/20 00:56:07;;;;;;;14.57;1.30;;;;;;;20.20;48.21;99475.75;7313145;19;146446;-42
2022/04/20 00:58:34;;;;;;;36.47;3.38;;;;;;;20.23;49.22;99480.72;7314486;19;129580;-42
2022/04/20 01:01:00;;;;;;;5.10;0.88;;;;;;;20.24;50.16;99484.97;7312084;19;129615;-40
2022/04/20 01:03:26;;;;;;;31.20;2.83;;;;;;;20.27;50.17;99471.66;7313991;19;129736;-40
2022/04/20 01:05:51;;;;;;;27.35;2.42;;;;;;;20.29;49.64;99475.81;7312509;19;129910;-39
2022/04/20 01:08:17;;;;;;;33.97;3.13;;;;;;;20.35;49.36;99482.25;7310618;19;153537;-41
2022/04/20 01:10:42;;;;;;;28.42;2.70;;;;;;;20.35;50.46;99474.41;7312358;19;143221;-43
2022/04/20 01:13:07;;;;;;;20.42;1.73;;;;;;;20.34;50.87;99478.00;7313789;19;144875;-41
2022/04/20 01:15:34;;;;;;;24.65;2.42;;;;;;;20.37;50.23;99475.13;7313890;19;129598;-40
2022/04/20 01:17:59;;;;;;;;;;;;;;;20.42;51.22;99472.94;7315237;19;128985;-40
2022/04/20 01:20:25;;;;;;;31.93;2.90;;;;;;;20.37;49.92;99472.50;7313346;19;129278;-39
2022/04/20 01:22:50;;;;;;;27.13;2.42;;;;;;;20.26;51.65;99463.00;7312846;19;129549;-41
2022/04/20 01:25:15;;;;;;;31.52;2.80;;;;;;;20.09;47.77;99473.22;7310511;19;158474;-41
2022/04/20 01:27:41;;;;;;;24.45;2.35;;;;;;;19.94;48.32;99472.78;7313414;19;129581;-41
2022/04/20 01:30:07;;;;;;;17.52;1.55;;;;;;;19.92;48.12;99472.06;7310939;19;129300;-38
2022/04/20 01:32:32;;;;;;;22.83;2.03;;;;;;;19.93;47.59;99475.50;7312698;19;130178;-40
2022/04/20 01:34:58;;;;;;;22.87;2.43;;;;;;;19.92;47.18;99459.03;7312302;19;159283;-43
2022/04/20 01:37:23;;;;;;;38.53;3.40;;;;;;;19.95;47.94;99471.81;7311277;19;130221;-39
2022/04/20 01:39:48;;;;;;;10.30;1.23;;;;;;;19.95;47.58;99471.00;7309942;19;153879;-42
2022/04/20 01:42:13;;;;;;;52.27;4.73;;;;;;;19.96;47.06;99462.19;7309549;19;156670;-41
2022/04/20 01:44:39;;;;;;;21.43;1.87;;;;;;;19.93;47.51;99454.63;7310525;19;159282;-42
2022/04/20 01:47:04;;;;;;;29.30;2.58;;;;;;;20.02;47.51;99456.44;7313165;19;147915;-41
2022/04/20 01:49:29;;;;;;;34.70;2.95;;;;;;;20.01;46.80;99460.03;7312079;19;129765;-40
2022/04/20 01:51:55;;;;;;;23.25;2.10;;;;;;;20.28;46.85;99458.47;7312250;19;158294;-39
2022/04/20 01:54:20;;;;;;;43.33;3.88;;;;;;;20.15;48.51;99446.63;7310142;19;158485;-39
2022/04/20 01:56:47;;;;;;;21.33;2.05;;;;;;;20.22;48.97;99464.22;7312990;19;129332;-40
2022/04/20 01:59:13;;;;;;;;;;;;;;;20.30;50.16;99450.50;7313359;19;129396;-40
2022/04/20 02:04:22;;;;;;;50.08;4.70;;;;;;;20.34;49.66;99442.28;7310341;19;128966;-40
2022/04/20 02:06:47;;;;;;;23.50;2.30;;;;;;;20.32;50.48;99438.13;7313703;19;129309;-38
2022/04/20 02:09:12;;;;;;;32.28;3.15;;;;;;;20.34;50.18;99436.22;7309948;19;153988;-42
2022/04/20 02:11:38;;;;;;;21.92;2.08;;;;;;;20.36;50.40;99436.91;7309217;19;146418;-42
2022/04/20 02:14:04;;;;;;;20.63;2.03;;;;;;;20.36;50.54;99436.91;7313262;19;130462;-42
2022/04/20 02:16:29;;;;;;;25.02;2.42;;;;;;;20.35;50.81;99437.88;7311806;19;130123;-37
2022/04/20 02:18:54;;;;;;;15.15;1.50;;;;;;;20.35;51.03;99435.25;7312443;19;130533;-39
2022/04/20 02:21:20;;;;;;;30.20;2.73;;;;;;;20.37;49.63;99431.56;7307912;19;158521;-39
2022/04/20 02:23:45;;;;;;;24.98;2.35;;;;;;;20.04;47.57;99428.44;7310561;19;160393;-37
2022/04/20 02:26:10;;;;;;;64.07;5.90;;;;;;;19.95;48.03;99430.06;7306861;19;154712;-40
2022/04/20 02:28:35;;;;;;;23.23;2.28;;;;;;;19.94;48.24;99430.19;7297269;19;155468;-39
2022/04/20 02:31:01;;;;;;;45.95;3.88;;;;;;;19.98;47.69;99428.97;7307888;19;158726;-39
2022/04/20 02:33:26;;;;;;;10.30;1.15;;;;;;;20.00;47.19;99427.06;7311428;19;145171;-40
2022/04/20 02:35:52;;;;;;;34.40;3.17;;;;;;;19.98;47.62;99426.38;7310333;19;155632;-42
2022/04/20 02:38:18;;;;;;;26.23;2.33;;;;;;;20.00;47.16;99434.91;7312353;19;129039;-41
2022/04/20 02:40:45;;;;;;;53.43;4.87;;;;;;;20.02;47.58;99420.75;7311102;19;130377;-42
2022/04/20 02:43:11;;;;;;;22.00;1.93;;;;;;;20.02;47.12;99430.34;7311139;19;129600;-41
2022/04/20 02:45:36;;;;;;;28.77;2.97;;;;;;;20.11;48.62;99429.56;7308701;19;129349;-39
2022/04/20 02:48:02;;;;;;;24.60;2.15;;;;;;;20.15;50.34;99420.50;7309249;19;155863;-42
2022/04/20 02:50:30;;;;;;;20.48;1.88;;;;;;;19.98;48.12;99421.16;7310574;19;129119;-39
2022/04/20 02:52:56;;;;;;;34.00;3.10;;;;;;;19.94;47.95;99422.38;7310624;19;129204;-41
2022/04/20 02:55:22;;;;;;;51.60;4.38;;;;;;;20.00;47.26;99421.84;7310210;19;155382;-41
2022/04/20 02:57:47;;;;;;;40.85;3.63;;;;;;;19.99;47.37;99420.19;7310596;19;129663;-38
2022/04/20 03:00:13;;;;;;;36.22;3.10;;;;;;;20.09;46.86;99421.03;7311531;19;129212;-39
2022/04/20 03:02:38;;;;;;;14.00;1.37;;;;;;;20.04;46.79;99424.06;7309986;19;129563;-40
2022/04/20 03:05:05;;;;;;;18.85;2.00;;;;;;;20.04;47.03;99425.81;7308206;19;156323;-42
2022/04/20 03:07:30;;;;;;;21.23;1.93;;;;;;;20.02;47.24;99420.75;7309935;19;129288;-38
2022/04/20 03:09:55;;;;;;;32.60;2.80;;;;;;;19.99;46.96;99414.97;7308880;19;129081;-42
2022/04/20 03:12:21;;;;;;;27.35;2.45;;;;;;;20.30;47.12;99427.00;7311686;19;129831;-40
2022/04/20 03:14:46;;;;;;;33.92;3.05;;;;;;;20.30;48.06;99440.06;7310353;19;130390;-40
2022/04/20 03:17:12;;;;;;;15.80;1.53;;;;;;;20.26;48.84;99436.09;7309909;19;154884;-42
2022/04/20 03:19:37;;;;;;;25.03;2.50;;;;;;;20.26;48.67;99423.03;7309535;19;130074;-42
2022/04/20 03:22:03;;;;;;;19.17;1.73;;;;;;;20.31;50.45;99436.50;7308205;19;159885;-42
2022/04/20 03:24:28;;;;;;;22.38;1.85;;;;;;;20.33;49.87;99439.78;7308751;19;129603;-40
2022/04/20 03:26:53;;;;;;;24.05;2.30;;;;;;;20.36;50.33;99439.53;7308428;19;154715;-38
2022/04/20 03:29:19;;;;;;;24.75;2.78;;;;;;;20.25;50.23;99416.13;7306157;19;142731;-40
2022/04/20 03:31:44;;;;;;;32.20;2.70;;;;;;;20.37;50.98;99438.56;7306326;19;158298;-39
2022/04/20 03:34:10;;;;;;;42.17;3.90;;;;;;;20.36;50.82;99439.53;7309805;19;129841;-38
2022/04/20 03:36:35;;;;;;;16.85;1.70;;;;;;;20.37;51.09;99439.41;7322300;19;129047;-40
2022/04/20 03:39:01;;;;;;;20.13;1.85;;;;;;;20.37;49.92;99438.56;7324559;19;130080;-41
2022/04/20 03:41:27;;;;;;;17.63;1.73;;;;;;;20.37;51.83;99439.41;7321773;19;130275;-41
2022/04/20 03:43:52;;;;;;;25.88;2.63;;;;;;;20.03;48.29;99438.03;7324580;19;129125;-39
2022/04/20 03:46:17;;;;;;;34.97;3.03;;;;;;;19.96;48.07;99436.09;7322429;19;153132;-40
2022/04/20 03:48:45;;;;;;;24.97;2.47;;;;;;;19.91;47.53;99435.69;7322415;19;158527;-42
2022/04/20 03:51:10;;;;;;;36.47;2.95;;;;;;;19.96;47.95;99430.88;7319951;19;129925;-40
2022/04/20 03:53:36;;;;;;;22.60;1.92;;;;;;;19.98;47.22;99445.44;7321111;19;138061;-40
2022/04/20 03:56:01;;;;;;;35.10;3.20;;;;;;;20.00;47.36;99442.72;7321485;19;154501;-42
2022/04/20 03:58:26;;;;;;;19.67;1.93;;;;;;;20.00;46.79;99440.13;7322100;19;158445;-40
2022/04/20 04:00:51;;;;;;;30.37;2.60;;;;;;;19.99;46.88;99441.06;7318613;19;158415;-39
2022/04/20 04:03:17;;;;;;;23.98;2.05;;;;;;;20.03;46.90;99438.03;7323089;19;128940;-37
2022/04/20 04:05:43;;;;;;;25.48;2.35;;;;;;;20.03;47.13;99448.47;7320912;19;130132;-41
2022/04/20 04:08:09;;;;;;;28.70;2.53;;;;;;;20.25;47.23;99443.06;7321308;19;131441;-41
2022/04/20 04:10:34;;;;;;;28.48;2.53;;;;;;;20.22;48.99;99447.72;7319380;19;130360;-39
2022/04/20 04:13:00;;;;;;;25.98;2.33;;;;;;;20.24;49.05;99451.03;7322647;19;129021;-41
2022/04/20 04:15:25;;;;;;;57.92;5.22;;;;;;;20.27;50.06;99451.59;7318170;19;154786;-42
2022/04/20 04:17:54;;;;;;;26.35;2.72;;;;;;;20.31;49.50;99452.97;7317666;19;159082;-41
2022/04/20 04:20:21;;;;;;;37.00;3.22;;;;;;;20.30;50.13;99451.34;7319548;19;130542;-38
2022/04/20 04:22:46;;;;;;;38.10;2.97;;;;;;;20.34;50.66;99457.13;7322524;19;130035;-39
2022/04/20 04:25:11;;;;;;;40.88;3.90;;;;;;;20.38;49.13;99453.25;7321325;19;129256;-38
2022/04/20 04:27:37;;;;;;;72.10;6.68;;;;;;;20.37;50.71;99456.84;7304158;19;134602;-39
2022/04/20 04:30:03;;;;;;;22.55;2.15;;;;;;;20.38;51.01;99458.47;7319045;19;131116;-42
2022/04/20 04:32:28;;;;;;;29.30;2.63;;;;;;;20.37;51.23;99451.63;7321531;19;130096;-41
2022/04/20 04:34:53;;;;;;;41.33;4.00;;;;;;;20.37;50.55;99455.06;7321178;19;153337;-41
2022/04/20 04:37:19;;;;;;;47.40;4.10;;;;;;;20.27;49.34;99456.00;7316904;19;158214;-39
2022/04/20 04:39:44;;;;;;;32.08;3.30;;;;;;;20.00;48.08;99458.38;7317287;19;157767;-40
2022/04/20 04:42:09;;;;;;;42.88;4.18;;;;;;;19.96;48.39;99449.16;7319521;19;130079;-42
2022/04/20 04:44:35;;;;;;;34.88;3.13;;;;;;;20.01;48.05;99454.81;7316397;19;133916;-40
2022/04/20 04:49:58;;;;;;;19.17;2.20;;;;;;;19.97;47.62;99459.47;7309646;19;130059;-41
2022/04/20 04:52:24;;;;;;;49.67;4.57;;;;;;;20.00;47.59;99456.56;7313673;19;130346;-39
2022/04/20 04:54:49;;;;;;;61.67;5.28;;;;;;;20.02;47.77;99454.66;7311729;19;129632;-40
2022/04/20 04:57:14;;;;;;;25.27;2.72;;;;;;;20.07;46.93;99454.25;7309946;19;131193;-40
2022/04/20 04:59:43;;;;;;;39.40;3.60;;;;;;;20.07;47.54;99459.47;7308057;19;150410;-41
2022/04/20 05:02:09;;;;;;;47.90;4.40;;;;;;;20.07;47.17;99454.25;7311443;19;130532;-40
2022/04/20 05:04:35;;;;;;;27.58;2.55;;;;;;;20.08;47.27;99450.72;7310213;19;130065;-40
2022/04/20 05:07:01;;;;;;;29.90;3.08;;;;;;;20.08;47.48;99450.72;7308945;19;131418;-38
2022/04/20 05:09:27;;;;;;;35.70;3.30;;;;;;;20.00;47.01;99450.56;7310706;19;130469;-41
2022/04/20 05:11:52;;;;;;;33.28;3.03;;;;;;;20.30;47.55;99459.16;7311365;19;129236;-40
2022/04/20 05:14:17;;;;;;;35.38;3.45;;;;;;;20.25;48.67;99463.13;7310484;19;154790;-41
2022/04/20 05:16:42;;;;;;;28.80;2.95;;;;;;;20.29;49.66;99454.06;7311556;19;158912;-40
2022/04/20 05:19:09;;;;;;;23.33;2.35;;;;;;;20.23;49.58;99444.19;7311019;19;158456;-41
2022/04/20 05:21:34;;;;;;;31.70;3.08;;;;;;;20.34;49.48;99468.38;7310855;19;129055;-37
2022/04/20 05:23:59;;;;;;;13.43;1.83;;;;;;;20.36;50.02;99455.19;7312344;19;153030;-42
2022/04/20 05:26:25;;;;;;;31.73;3.15;;;;;;;20.36;50.05;99450.78;7312953;19;130601;-39
2022/04/20 05:28:51;;;;;;;41.63;3.72;;;;;;;20.36;50.62;99453.38;7312551;19;130438;-41
2022/04/20 05:31:16;;;;;;;37.45;3.53;;;;;;;20.38;49.66;99455.88;7312106;19;129157;-41
2022/04/20 05:33:41;;;;;;;26.27;2.65;;;;;;;20.32;49.23;99445.97;7310385;19;153875;-43
2022/04/20 05:36:07;;;;;;;18.60;2.05;;;;;;;20.37;50.82;99456.84;7311609;19;157752;-41
2022/04/20 05:44:00;;;;;;;24.73;2.40;;;;;;;19.88;47.85;99454.22;7312834;19;128974;-43
2022/04/20 05:46:25;;;;;;;32.40;2.78;;;;;;;19.93;47.49;99465.06;7310707;19;158253;-38
2022/04/20 05:48:51;;;;;;;58.85;5.45;;;;;;;19.94;47.69;99464.94;7309188;19;130089;-42
2022/04/20 05:51:16;;;;;;;29.48;2.95;;;;;;;19.98;47.42;99465.50;7310507;19;155188;-42
2022/04/20 05:53:41;;;;;;;48.53;4.78;;;;;;;20.00;47.16;99458.38;7312808;19;129952;-38
2022/04/20 05:56:06;;;;;;;18.67;2.33;;;;;;;20.00;47.08;99458.38;7310721;19;133504;-40
2022/04/20 05:58:32;;;;;;;30.92;2.83;;;;;;;20.02;47.00;99456.44;7308980;19;159183;-38
2022/04/20 06:00:57;;;;;;;21.88;2.00;;;;;;;20.04;47.12;99457.13;7310637;19;129847;-42
2022/04/20 06:03:22;;;;;;;33.03;3.08;;;;;;;20.05;47.14;99453.56;7312632;19;133414;-37
2022/04/20 06:05:47;;;;;;;31.63;3.23;;;;;;;20.04;47.21;99463.19;7306429;19;159165;-41
2022/04/20 06:08:13;;;;;;;47.10;4.47;;;;;;;20.07;47.76;99456.88;7310035;19;157657;-42
2022/04/20 06:10:38;;;;;;;54.63;5.00;;;;;;;20.28;47.47;99457.66;7309551;19;154721;-39
2022/04/20 06:13:03;;;;;;;25.90;2.47;;;;;;;20.24;48.86;99454.50;7310848;19;154474;-38
2022/04/20 06:15:28;;;;;;;44.08;4.25;;;;;;;20.23;49.42;99449.41;7308468;19;130052;-39
2022/04/20 06:17:54;;;;;;;38.43;3.47;;;;;;;20.29;49.76;99456.69;7308465;19;158755;-42
2022/04/20 06:20:21;;;;;;;22.10;2.60;;;;;;;20.29;50.02;99452.31;7309006;19;154240;-41
2022/04/20 06:22:46;;;;;;;53.20;4.95;;;;;;;20.30;50.67;99446.09;7312965;19;130527;-41
2022/04/20 06:25:11;;;;;;;31.67;3.25;;;;;;;20.34;50.39;99452.72;7307462;19;155153;-39
2022/04/20 06:27:37;;;;;;;60.73;5.53;;;;;;;20.36;50.65;99452.59;7295326;19;158554;-39
2022/04/20 06:30:02;;;;;;;26.90;2.42;;;;;;;20.35;50.81;99449.16;7306570;19;131467;-42
2022/04/20 06:32:28;;;;;;;24.13;2.35;;;;;;;20.37;51.44;99449.00;7312546;19;130115;-42
2022/04/20 06:34:54;;;;;;;41.33;3.80;;;;;;;20.36;50.84;99445.56;7310592;19;131117;-41
2022/04/20 06:37:20;;;;;;;74.55;6.93;;;;;;;20.27;48.83;99450.78;7310390;19;129208;-40
2022/04/20 06:39:46;;;;;;;33.65;3.03;;;;;;;19.99;48.17;99447.09;7312250;19;129006;-38
2022/04/20 06:42:11;;;;;;;31.58;2.92;;;;;;;19.94;47.57;99451.06;7309931;19;130593;-40
2022/04/20 06:44:37;;;;;;;27.10;2.55;;;;;;;19.99;47.60;99444.50;7312502;19;130281;-40
2022/04/20 06:47:02;;;;;;;19.98;1.92;;;;;;;20.01;47.51;99444.38;7311981;19;130319;-42
2022/04/20 06:49:27;;;;;;;32.92;3.35;;;;;;;19.99;47.65;99439.28;7309681;19;131395;-41
2022/04/20 07:00:06;;;;;;;34.92;3.33;;;;;;;20.02;47.28;99449.44;7309215;19;129628;-39
2022/04/20 07:02:32;;;;;;;37.83;3.47;;;;;;;20.06;47.04;99448.22;7311904;19;129281;-41
2022/04/20 07:04:57;;;;;;;19.92;1.73;;;;;;;20.23;47.29;99444.19;7308253;19;129712;-39
2022/04/20 07:07:22;;;;;;;45.28;4.35;;;;;;;20.23;48.64;99452.81;7310061;19;129078;-41
2022/04/20 07:09:48;;;;;;;38.15;3.83;;;;;;;20.15;48.62;99430.97;7307791;19;129148;-41
2022/04/20 07:12:14;;;;;;;46.58;4.15;;;;;;;20.24;49.40;99438.84;7306207;19;152884;-41
2022/04/20 07:14:39;;;;;;;24.55;2.33;;;;;;;20.29;49.28;99444.47;7310621;19;129447;-39
2022/04/20 07:17:04;;;;;;;37.08;3.15;;;;;;;20.33;50.41;99437.16;7309024;19;129952;-40
2022/04/20 07:19:30;;;;;;;27.83;2.53;;;;;;;20.31;50.37;99436.50;7311093;19;129535;-40
2022/04/20 07:21:55;;;;;;;26.85;2.67;;;;;;;20.37;50.02;99433.34;7309183;19;154834;-42
2022/04/20 07:24:20;;;;;;;33.90;3.10;;;;;;;20.36;50.15;99426.47;7310562;19;129287;-40
2022/04/20 07:26:46;;;;;;;28.17;2.67;;;;;;;20.34;50.04;99426.63;7309361;19;133909;-40
2022/04/20 07:29:11;;;;;;;33.97;3.13;;;;;;;20.33;50.64;99427.56;7308362;19;155267;-41
2022/04/20 07:31:36;;;;;;;18.60;2.00;;;;;;;20.35;49.38;99428.25;7307069;19;153953;-43
2022/04/20 07:34:01;;;;;;;25.47;2.43;;;;;;;20.34;50.22;99423.16;7308275;19;158514;-42
2022/04/20 07:36:27;;;;;;;34.78;3.53;;;;;;;19.99;48.09;99417.56;7309141;19;130478;-41
2022/04/20 07:38:52;;;;;;;25.77;2.30;;;;;;;19.96;48.37;99418.69;7309524;19;154511;-39
2022/04/20 07:41:17;;;;;;;33.27;3.27;;;;;;;19.95;48.07;99418.81;7306297;19;154113;-40
2022/04/20 07:43:43;;;;;;;23.50;2.40;;;;;;;19.98;47.26;99418.53;7310117;19;158864;-40
2022/04/20 07:46:08;;;;;;;19.10;2.17;;;;;;;19.94;47.26;99411.94;7308292;19;130156;-39
2022/04/20 07:48:33;;;;;;;28.48;2.40;;;;;;;19.99;47.46;99404.53;7310806;19;129313;-39
2022/04/20 07:51:00;;;;;;;23.93;2.13;;;;;;;20.01;47.46;99413.06;7308092;19;154237;-38
2022/04/20 07:53:26;;;;;;;19.67;1.90;;;;;;;20.01;47.20;99407.84;7310743;19;130313;-39
2022/04/20 07:55:51;;;;;;;24.77;2.35;;;;;;;19.91;46.68;99399.16;7309672;19;129683;-40
2022/04/20 07:58:17;;;;;;;34.57;2.97;;;;;;;20.03;46.99;99400.69;7308551;19;155139;-41
2022/04/20 08:00:42;;;;;;;38.05;3.25;;;;;;;20.09;47.20;99407.97;7308582;19;129388;-43
2022/04/20 08:03:10;;;;;;;21.98;1.95;;;;;;;20.07;47.25;99413.34;7310626;19;130816;-41
2022/04/20 08:05:36;;;;;;;37.95;3.47;;;;;;;20.26;47.17;99400.34;7307231;19;129234;-41
2022/04/20 08:08:02;;;;;;;22.20;1.83;;;;;;;20.15;48.72;99390.03;7310234;19;129462;-42
2022/04/20 08:10:27;;;;;;;17.77;1.77;;;;;;;20.16;48.86;99390.88;7307282;19;129559;-41
2022/04/20 08:12:52;;;;;;;31.60;3.03;;;;;;;20.26;50.00;99415.19;7308423;19;156251;-40
2022/04/20 08:15:17;;;;;;;48.77;4.40;;;;;;;20.27;50.15;99409.00;7308193;19;158487;-41
2022/04/20 08:17:42;;;;;;;23.77;2.17;;;;;;;20.21;50.01;99388.66;7308968;19;154874;-43
2022/04/20 08:20:09;;;;;;;15.80;1.87;;;;;;;20.32;50.24;99401.59;7308261;19;153994;-40
2022/04/20 08:22:44;;;;;;;19.40;1.80;;;;;;;20.36;50.34;99400.38;7315837;19;129742;-39
2022/04/20 08:25:12;;;;;;;28.98;2.78;;;;;;;20.34;50.40;99394.44;7314037;19;130415;-37
2022/04/20 08:27:37;;;;;;;18.25;1.80;;;;;;;20.34;49.71;99399.69;7316549;19;129166;-39
2022/04/20 08:30:07;;;;;;;31.75;2.85;;;;;;;20.33;51.16;99404.06;7313982;19;133646;-38
2022/04/20 08:32:33;;;;;;;29.85;2.60;;;;;;;20.33;51.10;99411.06;7316162;19;130613;-41
2022/04/20 08:34:58;;;;;;;21.02;2.05;;;;;;;20.05;48.27;99403.97;7315836;19;130203;-39
2022/04/20 08:37:25;;;;;;;33.08;2.70;;;;;;;19.96;48.53;99399.56;7313576;19;153438;-41
2022/04/20 08:39:50;;;;;;;27.88;2.58;;;;;;;19.93;47.70;99410.28;7316129;19;129245;-45
2022/04/20 08:42:19;;;;;;;30.58;3.03;;;;;;;19.92;47.83;99403.41;7314820;19;158122;-39
2022/04/20 08:44:48;;;;;;;21.77;1.98;;;;;;;19.95;47.85;99403.16;7315965;19;130318;-40
2022/04/20 08:47:20;;;;;;;50.63;4.45;;;;;;;19.97;47.18;99406.44;7313781;19;130117;-43
2022/04/20 08:49:47;;;;;;;26.58;2.33;;;;;;;19.96;47.58;99410.84;7314847;19;129108;-43
2022/04/20 08:54:56;;;;;;;18.73;1.75;;;;;;;20.02;47.26;99401.66;7316645;19;129087;-39
2022/04/20 08:57:24;;;;;;;29.58;2.70;;;;;;;20.02;47.48;99393.81;7313225;19;154792;-41
2022/04/20 08:59:51;;;;;;;27.38;2.58;;;;;;;20.02;47.26;99393.81;7313953;19;129009;-40
2022/04/20 09:02:17;;;;;;;34.65;3.03;;;;;;;20.26;46.98;99391.72;7314872;19;130500;-42
2022/04/20 09:04:42;;;;;;;30.08;2.88;;;;;;;20.22;48.90;99390.31;7312671;19;129851;-40
2022/04/20 09:07:09;;;;;;;30.70;3.08;;;;;;;20.23;49.50;99381.53;7313702;19;128942;-36
2022/04/20 09:09:35;;;;;;;56.10;4.43;;;;;;;20.25;49.60;99377.81;7314171;19;129623;-41
2022/04/20 09:12:00;;;;;;;31.88;3.08;;;;;;;20.25;50.75;99382.19;7313774;19;129614;-42
2022/04/20 09:14:29;;;;;;;40.70;3.58;;;;;;;20.27;50.50;99383.72;7315192;19;129507;-41
2022/04/20 09:16:55;;;;;;;23.25;2.17;;;;;;;20.22;50.56;99378.09;7314047;19;129714;-40
2022/04/20 09:19:25;;;;;;;35.33;3.28;;;;;;;20.29;51.14;99381.81;7314432;19;128962;-41
2022/04/20 09:21:50;;;;;;;34.70;3.08;;;;;;;20.29;50.36;99386.22;7315299;19;130168;-39
2022/04/20 09:24:15;;;;;;;43.75;3.88;;;;;;;20.29;49.69;99386.22;7314369;19;130031;-41
2022/04/20 09:26:51;;;;;;;22.45;2.05;;;;;;;20.32;51.60;99391.16;7309916;19;154963;-39
2022/04/20 09:29:17;;;;;;;10.32;1.45;;;;;;;20.29;50.24;99387.03;7315071;19;129000;-40
2022/04/20 09:31:47;;;;;;;28.85;2.72;;;;;;;20.09;48.74;99387.09;7311904;19;157943;-39
2022/04/20 09:34:24;;;;;;;36.88;3.00;;;;;;;19.94;47.74;99385.84;7311478;19;129371;-39
2022/04/20 09:36:50;;;;;;;27.33;2.55;;;;;;;19.93;48.38;99378.97;7311197;19;154569;-39
2022/04/20 09:39:16;;;;;;;30.77;2.78;;;;;;;19.96;48.01;99384.75;7313813;19;129784;-38
2022/04/20 09:41:59;;;;;;;34.92;3.03;;;;;;;19.90;47.86;99376.66;7311240;19;130191;-41
2022/04/20 09:44:25;;;;;;;30.40;2.72;;;;;;;19.94;47.47;99380.63;7313018;19;130751;-40
2022/04/20 09:49:57;;;;;;;35.92;3.15;;;;;;;19.96;47.49;99373.50;7313822;19;131029;-39
2022/04/20 09:52:42;;;;;;;28.42;2.42;;;;;;;20.03;47.56;99385.03;7313873;19;130189;-42
2022/04/20 09:55:11;;;;;;;31.90;2.65;;;;;;;20.04;47.33;99386.69;7313255;19;129450;-39
2022/04/20 09:57:37;;;;;;;39.55;3.22;;;;;;;20.04;46.88;99386.69;7312954;19;129904;-42
2022/04/20 10:00:05;;;;;;;22.58;1.85;;;;;;;20.09;48.91;99389.72;7312416;19;130287;-42
2022/04/20 10:02:36;;;;;;;21.85;1.85;;;;;;;20.12;49.96;99379.84;7314378;19;130173;-39
2022/04/20 10:05:02;;;;;;;52.65;4.03;;;;;;;19.97;48.70;99380.34;7310094;19;132173;-41
2022/04/20 10:07:28;;;;;;;23.67;2.10;;;;;;;19.99;47.79;99378.44;7312163;19;130899;-38
2022/04/20 10:09:53;;;;;;;41.35;3.40;;;;;;;19.98;48.07;99376.78;7311926;19;129202;-39
2022/04/20 10:12:19;;;;;;;25.45;2.28;;;;;;;20.00;47.60;99377.50;7312312;19;130593;-38
2022/04/20 10:17:41;;;;;;;25.23;2.22;;;;;;;19.99;47.75;99373.22;7312540;19;129041;-39
2022/04/20 10:20:07;;;;;;;24.98;2.20;;;;;;;20.01;47.40;99373.91;7313224;19;130175;-39
2022/04/20 10:22:33;;;;;;;14.13;1.47;;;;;;;20.02;47.48;99380.75;7313071;19;130806;-42
2022/04/20 10:25:01;;;;;;;29.85;2.72;;;;;;;19.94;47.14;99360.59;7310585;19;129680;-39
2022/04/20 10:27:57;;;;;;;39.63;3.33;;;;;;;20.04;47.49;99371.03;7312647;19;129357;-38
2022/04/20 10:30:47;;;;;;;50.03;3.88;;;;;;;20.28;47.85;99374.13;7311551;19;129783;-42
2022/04/20 10:33:23;;;;;;;32.28;2.65;;;;;;;20.12;48.73;99352.91;7312791;19;129292;-40
2022/04/20 10:36:04;;;;;;;27.90;2.40;;;;;;;20.24;49.15;99372.75;7311230;19;129594;-41
2022/04/20 10:38:31;;;;;;;23.50;2.08;;;;;;;20.23;49.50;99382.34;7311578;19;129578;-41
2022/04/20 10:40:56;;;;;;;;;;;;;;;20.29;50.98;99375.75;7311087;19;129185;-43
2022/04/20 10:43:23;;;;;;;20.05;1.83;;;;;;;20.28;50.31;99379.34;7313550;19;130302;-40
2022/04/20 10:46:07;;;;;;;;;;;;;;;20.32;50.38;99380.72;7306912;19;130300;-39
2022/04/20 10:49:15;;;;;;;24.08;2.30;;;;;;;20.29;51.29;99383.59;7312411;19;129915;-40
2022/04/20 10:51:46;;;;;;;22.92;2.03;;;;;;;20.28;50.20;99368.91;7309135;19;129768;-40
2022/04/20 10:54:17;;;;;;;34.55;2.90;;;;;;;20.28;50.99;99374.13;7312162;19;131368;-39
2022/04/20 10:56:50;;;;;;;27.80;2.35;;;;;;;20.28;50.02;99374.13;7309692;19;159240;-41
2022/04/20 10:59:17;;;;;;;33.92;3.13;;;;;;;20.27;50.97;99367.25;7310013;19;129288;-40
2022/04/20 11:02:06;;;;;;;24.35;2.15;;;;;;;20.10;49.04;99360.03;7309588;19;129838;-39
2022/04/20 11:04:41;;;;;;;27.10;2.15;;;;;;;19.90;48.19;99371.44;7312184;19;129782;-42
2022/04/20 11:07:07;;;;;;;36.25;3.22;;;;;;;19.92;48.04;99366.88;7309520;19;129139;-41
2022/04/20 11:09:52;;;;;;;25.88;2.20;;;;;;;19.91;47.54;99363.47;7310520;19;129401;-42
2022/04/20 11:18:39;;;;;;;21.08;1.88;;;;;;;19.97;47.61;99349.88;7306514;19;131507;-40
2022/04/20 11:21:04;;;;;;;28.25;2.30;;;;;;;20.01;47.67;99353.03;7307811;19;129911;-39
2022/04/20 11:23:59;;;;;;;21.73;1.73;;;;;;;19.96;47.06;99342.19;7311369;19;154708;-40
2022/04/20 11:26:31;;;;;;;50.08;4.03;;;;;;;20.02;47.25;99344.25;7305411;19;130421;-38
2022/04/20 11:29:11;;;;;;;21.95;1.95;;;;;;;20.02;48.68;99339.00;7310285;19;130855;-41
2022/04/20 11:31:42;;;;;;;21.92;1.98;;;;;;;20.18;50.66;99347.19;7308226;19;129662;-37
2022/04/20 11:34:08;;;;;;;23.95;1.92;;;;;;;19.94;48.53;99344.09;7311654;19;129156;-40
2022/04/20 11:36:33;;;;;;;22.17;1.80;;;;;;;19.82;48.53;99332.13;7311018;19;129190;-41
2022/04/20 11:39:01;;;;;;;22.80;1.98;;;;;;;20.00;47.52;99344.38;7310091;19;129135;-39
2022/04/20 11:41:27;;;;;;;19.90;2.00;;;;;;;19.99;47.44;99341.91;7308960;19;129140;-41
2022/04/20 11:43:52;;;;;;;20.40;1.87;;;;;;;20.00;47.73;99339.16;7310836;19;129492;-40
2022/04/20 11:46:18;;;;;;;26.88;2.38;;;;;;;19.94;47.52;99328.44;7310008;19;130155;-38
2022/04/20 11:48:51;;;;;;;23.33;2.08;;;;;;;19.91;47.09;99323.50;7311256;19;130520;-40
2022/04/20 11:51:21;;;;;;;25.40;2.10;;;;;;;20.02;47.11;99336.41;7308239;19;129271;-41